Time;durP1;ratioP1;P1;durP2;ratioP2;P2;SDS_P1;SDS_P2;PMS_P1;PMS_P2;Temp;Humidity;BMP_temperature;BMP_pressure;BME280_temperature;BME280_humidity;BME280_pressure;Samples;Min_cycle;Max_cycle;Signal;HPM_P1;HPM_P2
2023/06/02 00:01:05;;;;;;;;;7.33;5.67;;;;;20.78;44.50;101436.50;4979085;28;45583;-78
2023/06/02 00:03:33;;;;;;;;;7.33;6.00;;;;;20.70;44.85;101426.97;4980137;28;45464;-74
2023/06/02 00:06:08;;;;;;;;;9.00;5.67;;;;;20.87;44.73;101455.75;5000670;28;45373;-72
2023/06/02 00:08:40;;;;;;;;;7.33;7.33;;;;;20.74;44.57;101431.28;5003244;28;45541;-75
2023/06/02 00:11:07;;;;;;;;;7.00;7.00;;;;;20.77;44.30;101453.41;4982256;28;45589;-76
2023/06/02 00:13:33;;;;;;;;;8.33;7.00;;;;;20.59;44.76;101433.50;5002904;28;45358;-76
2023/06/02 00:16:00;;;;;;;;;12.67;7.67;;;;;20.60;44.94;101451.25;4980123;28;45603;-76
2023/06/02 00:18:26;;;;;;;;;9.00;7.00;;;;;20.46;45.28;101440.94;4996778;28;45419;-76
2023/06/02 00:20:53;;;;;;;;;11.67;8.67;;;;;20.33;45.21;101425.34;4995936;28;45510;-75
2023/06/02 00:23:19;;;;;;;;;11.33;11.33;;;;;20.44;45.31;101451.63;4978472;28;45467;-72
2023/06/02 00:25:45;;;;;;;;;9.00;7.00;;;;;20.34;45.37;101448.34;4978432;28;45838;-73
2023/06/02 00:28:11;;;;;;;;;11.33;10.33;;;;;20.33;45.45;101438.63;4995702;28;45331;-73
2023/06/02 00:30:37;;;;;;;;;11.67;10.00;;;;;20.32;45.37;101446.66;4983126;28;45490;-77
2023/06/02 00:33:06;;;;;;;;;10.67;8.67;;;;;20.24;45.57;101444.19;4997024;28;45353;-77
2023/06/02 00:35:31;;;;;;;;;14.00;9.67;;;;;20.19;45.50;101447.88;4999729;28;45341;-76
2023/06/02 00:38:02;;;;;;;;;11.33;9.67;;;;;20.16;45.65;101450.63;4999483;28;45661;-77
2023/06/02 00:40:28;;;;;;;;;8.00;7.00;;;;;20.17;45.65;101452.34;4998521;28;45405;-76
2023/06/02 00:42:54;;;;;;;;;11.00;9.00;;;;;20.23;45.66;101463.72;4977826;28;45425;-74
2023/06/02 00:45:19;;;;;;;;;13.33;9.00;;;;;20.22;45.87;101451.34;4995988;28;45596;-72
2023/06/02 00:47:45;;;;;;;;;14.00;9.67;;;;;20.13;45.52;101431.16;4995431;28;45361;-73
2023/06/02 00:50:10;;;;;;;;;10.67;10.00;;;;;20.21;45.99;101457.56;4994935;28;45433;-73
2023/06/02 00:52:40;;;;;;;;;8.67;8.33;;;;;20.19;45.57;101458.50;4995647;28;45302;-77
2023/06/02 00:55:07;;;;;;;;;13.33;9.33;;;;;20.05;45.75;101442.91;4995316;28;45661;-78
2023/06/02 00:57:33;;;;;;;;;8.33;7.00;;;;;20.06;45.77;101439.38;4977238;28;48137;-78
2023/06/02 01:00:00;;;;;;;;;10.33;9.67;;;;;20.18;45.79;101454.13;4995692;28;45547;-78
2023/06/02 01:02:26;;;;;;;;;11.67;10.33;;;;;19.87;45.71;101402.63;4995936;28;45481;-78
2023/06/02 01:04:57;;;;;;;;;11.00;8.67;;;;;20.03;45.50;101442.97;4978645;28;45928;-75
2023/06/02 01:07:25;;;;;;;;;12.67;9.33;;;;;19.99;45.57;101432.47;4996364;28;45378;-77
2023/06/02 01:10:01;;;;;;;;;15.67;8.67;;;;;20.09;45.94;101448.13;4999353;28;45528;-78
2023/06/02 01:12:27;;;;;;;;;11.33;10.00;;;;;20.04;45.75;101455.34;4998696;28;45548;-74
2023/06/02 01:14:53;;;;;;;;;14.67;10.67;;;;;19.95;45.71;101438.75;4994699;28;45550;-77
2023/06/02 01:17:19;;;;;;;;;19.00;17.33;;;;;19.70;46.05;101415.47;4994546;28;45686;-76
2023/06/02 01:19:51;;;;;;;;;10.67;10.67;;;;;19.59;46.10;101421.00;4994876;28;45396;-76
2023/06/02 01:22:23;;;;;;;;;16.33;11.00;;;;;19.61;46.31;101428.94;4977054;28;45466;-77
2023/06/02 01:24:50;;;;;;;;;15.00;12.33;;;;;19.70;46.38;101450.88;4998572;28;45456;-76
2023/06/02 01:27:16;;;;;;;;;13.00;13.00;;;;;19.63;46.43;101445.72;4980001;28;45779;-75
2023/06/02 01:29:44;;;;;;;;;13.33;13.33;;;;;19.61;46.55;101442.25;4994335;28;45524;-73
2023/06/02 01:32:19;;;;;;;;;12.00;10.33;;;;;19.66;46.36;101459.81;4997019;28;45469;-74
2023/06/02 01:34:52;;;;;;;;;15.33;13.00;;;;;19.68;46.44;101459.81;4999163;28;45476;-75
2023/06/02 01:37:20;;;;;;;;;15.00;12.33;;;;;19.60;46.53;101448.44;4998104;28;46129;-75
2023/06/02 01:39:48;;;;;;;;;14.00;11.33;;;;;19.66;46.09;101459.81;5007598;28;45305;-75
2023/06/02 01:42:15;;;;;;;;;15.67;13.00;;;;;19.67;46.51;101461.56;5005075;28;44770;-75
2023/06/02 01:44:43;;;;;;;;;15.00;12.00;;;;;19.64;46.37;101460.75;5005755;28;45559;-75
2023/06/02 01:47:10;;;;;;;;;12.33;11.00;;;;;19.65;46.10;101455.41;4998465;28;45570;-76
2023/06/02 01:49:35;;;;;;;;;20.33;16.67;;;;;19.55;46.14;101447.69;4979271;28;45575;-77
2023/06/02 01:52:02;;;;;;;;;20.00;17.00;;;;;19.19;46.88;101439.66;4995965;28;45399;-77
2023/06/02 01:54:28;;;;;;;;;15.33;14.00;;;;;19.17;47.16;101450.34;4996498;28;45366;-77
2023/06/02 01:56:53;;;;;;;;;18.00;13.00;;;;;19.18;47.07;101451.22;4980518;28;45546;-77
2023/06/02 01:59:23;;;;;;;;;12.33;12.33;;;;;18.97;47.32;101418.91;4978098;28;45503;-77
2023/06/02 02:01:49;;;;;;;;;17.33;13.67;;;;;19.00;47.15;101423.28;4976692;28;45482;-77
2023/06/02 02:04:15;;;;;;;;;20.67;14.33;;;;;19.18;47.11;101454.72;4998288;28;45476;-75
2023/06/02 02:06:42;;;;;;;;;18.33;16.67;;;;;19.15;46.81;101449.50;4979877;28;46905;-71
2023/06/02 02:09:08;;;;;;;;;13.00;10.67;;;;;19.01;47.10;101419.72;4995768;28;45337;-75
2023/06/02 02:11:34;;;;;;;;;13.33;12.67;;;;;19.16;46.94;101445.06;4996544;28;45444;-75
2023/06/02 02:14:04;;;;;;;;;15.33;14.67;;;;;19.06;46.85;101424.00;4998717;28;45261;-76
2023/06/02 02:16:30;;;;;;;;;14.33;13.33;;;;;19.27;46.80;101462.50;4998007;28;46066;-75
2023/06/02 02:18:56;;;;;;;;;15.67;11.67;;;;;19.04;46.82;101412.56;4976353;28;45540;-72
2023/06/02 02:21:25;;;;;;;;;14.67;13.67;;;;;19.33;46.75;101457.94;4995450;28;45456;-73
2023/06/02 02:23:51;;;;;;;;;17.33;16.00;;;;;19.25;46.53;101448.38;4996609;28;45397;-73
2023/06/02 02:26:18;;;;;;;;;14.67;11.67;;;;;18.96;46.63;101390.63;4993491;28;46279;-77
2023/06/02 02:28:45;;;;;;;;;18.67;16.33;;;;;19.25;46.53;101453.69;4975438;28;45533;-74
2023/06/02 02:31:11;;;;;;;;;21.67;17.33;;;;;19.07;46.50;101452.31;4993618;28;45389;-74
2023/06/02 02:33:36;;;;;;;;;20.67;18.67;;;;;18.94;47.09;101442.00;4993489;28;45424;-73
2023/06/02 02:36:02;;;;;;;;;17.67;12.67;;;;;18.84;46.86;101439.53;4993340;28;45554;-72
2023/06/02 02:38:28;;;;;;;;;18.33;15.00;;;;;18.98;46.80;101459.59;4994015;28;46021;-72
2023/06/02 02:40:53;;;;;;;;;21.00;19.67;;;;;18.99;46.73;101472.84;4996203;28;45369;-72
2023/06/02 02:43:19;;;;;;;;;18.00;17.67;;;;;18.76;47.01;101457.38;4995848;28;45806;-77
2023/06/02 02:45:45;;;;;;;;;19.33;15.00;;;;;18.78;47.40;101465.34;4993861;28;46430;-76
2023/06/02 02:48:11;;;;;;;;;14.33;13.67;;;;;18.79;47.15;101465.31;4993333;28;45381;-76
2023/06/02 02:50:36;;;;;;;;;17.67;13.00;;;;;18.78;47.17;101449.41;4993876;28;45677;-77
2023/06/02 02:53:02;;;;;;;;;17.33;14.67;;;;;18.88;47.28;101471.31;4976461;28;45450;-77
2023/06/02 02:55:55;;;;;;;;;15.00;13.33;;;;;18.89;46.79;101467.75;4994596;28;46296;-73
2023/06/02 02:58:34;;;;;;;;;19.00;16.00;;;;;18.89;46.78;101471.31;4994632;28;45475;-78
2023/06/02 03:01:16;;;;;;;;;15.67;13.33;;;;;18.92;46.88;101480.97;4976192;28;45688;-74
2023/06/02 03:03:44;;;;;;;;;14.67;13.33;;;;;18.82;46.78;101456.41;4976209;28;45597;-75
2023/06/02 03:06:13;;;;;;;;;15.67;15.67;;;;;18.82;46.66;101459.06;4993321;28;45877;-74
2023/06/02 03:08:39;;;;;;;;;14.33;13.33;;;;;18.91;46.93;101481.88;4975820;28;45424;-75
2023/06/02 03:11:05;;;;;;;;;13.33;12.00;;;;;18.88;46.43;101472.19;4994259;28;45662;-75
2023/06/02 03:13:30;;;;;;;;;19.33;14.67;;;;;18.87;46.32;101464.28;4996594;28;45409;-73
2023/06/02 03:15:56;;;;;;;;;18.33;14.67;;;;;18.97;46.30;101477.31;4975149;28;47583;-74
2023/06/02 03:18:22;;;;;;;;;16.33;13.67;;;;;18.90;46.54;101465.06;4975031;28;45470;-76
2023/06/02 03:20:48;;;;;;;;;16.33;13.33;;;;;18.93;46.24;101469.44;4975715;28;45716;-74
2023/06/02 03:23:14;;;;;;;;;17.00;13.67;;;;;18.98;46.35;101481.72;4975527;28;45606;-75
2023/06/02 03:25:40;;;;;;;;;25.33;17.33;;;;;18.97;46.35;101485.28;4994080;28;45570;-76
2023/06/02 03:28:06;;;;;;;;;21.33;19.33;;;;;18.77;46.34;101466.22;4994983;28;45373;-76
2023/06/02 03:30:32;;;;;;;;;21.67;19.33;;;;;18.85;46.64;101493.50;4980550;28;45528;-77
2023/06/02 03:32:57;;;;;;;;;18.67;13.00;;;;;18.72;46.36;101473.38;4998945;28;45478;-75
2023/06/02 03:35:23;;;;;;;;;17.33;16.33;;;;;18.81;46.58;101492.66;4998280;28;46261;-76
2023/06/02 03:37:49;;;;;;;;;25.33;20.33;;;;;18.61;46.33;101468.28;4997530;28;45447;-77
2023/06/02 03:40:14;;;;;;;;;18.67;17.67;;;;;18.75;46.63;101486.59;4979047;28;45834;-75
2023/06/02 03:42:40;;;;;;;;;22.67;19.00;;;;;18.67;46.61;101488.50;4996360;28;45622;-76
2023/06/02 03:45:06;;;;;;;;;21.67;17.33;;;;;18.53;46.79;101473.75;4996179;28;45465;-77
2023/06/02 03:47:31;;;;;;;;;16.67;15.00;;;;;18.48;46.76;101469.41;4996113;28;45552;-74
2023/06/02 03:49:57;;;;;;;;;21.33;16.00;;;;;18.59;46.90;101491.31;4996256;28;45400;-78
2023/06/02 03:52:24;;;;;;;;;18.67;17.33;;;;;18.42;46.70;101467.78;4994613;28;45392;-74
2023/06/02 03:54:52;;;;;;;;;19.67;16.67;;;;;18.53;46.73;101497.63;4994595;28;45393;-76
2023/06/02 03:57:18;;;;;;;;;22.00;20.00;;;;;18.26;46.98;101453.03;4996375;28;45408;-76
2023/06/02 03:59:44;;;;;;;;;24.67;20.00;;;;;18.42;46.93;101496.94;4999348;28;45542;-73
2023/06/02 04:02:10;;;;;;;;;22.67;19.33;;;;;18.12;46.86;101450.63;4998495;28;45440;-74
2023/06/02 04:04:36;;;;;;;;;24.00;21.00;;;;;18.16;47.11;101476.19;4997842;28;45564;-76
2023/06/02 04:07:02;;;;;;;;;25.00;23.33;;;;;18.34;47.12;101498.84;4997988;28;45994;-72
2023/06/02 04:09:28;;;;;;;;;22.00;19.33;;;;;18.26;46.80;101480.44;4994500;28;45357;-74
2023/06/02 04:11:53;;;;;;;;;27.67;21.67;;;;;18.30;46.92;101490.09;4994405;28;45478;-77
2023/06/02 04:14:20;;;;;;;;;31.00;23.67;;;;;18.20;46.99;101492.03;4976482;28;47618;-78
2023/06/02 04:16:46;;;;;;;;;19.67;17.67;;;;;18.13;47.54;101508.09;4993798;28;45556;-78
2023/06/02 04:19:12;;;;;;;;;21.00;18.00;;;;;18.13;47.35;101503.66;4994592;28;45456;-73
2023/06/02 04:21:41;;;;;;;;;21.33;15.67;;;;;18.10;47.25;101494.84;4997688;28;45327;-78
2023/06/02 04:24:07;;;;;;;;;22.33;19.33;;;;;18.03;47.22;101486.13;4999569;28;45449;-77
2023/06/02 04:26:33;;;;;;;;;23.00;18.33;;;;;18.07;47.13;101493.13;4999006;28;45405;-76
2023/06/02 04:29:00;;;;;;;;;23.67;18.33;;;;;18.12;47.34;101506.31;4979247;28;45494;-77
2023/06/02 04:31:43;;;;;;;;;23.00;20.33;;;;;17.97;47.34;101488.91;4977254;28;45783;-76
2023/06/02 04:34:10;;;;;;;;;25.33;19.67;;;;;17.85;47.33;101471.44;4979414;28;47170;-77
2023/06/02 04:36:36;;;;;;;;;21.67;18.33;;;;;17.74;47.49;101468.03;4994095;28;45793;-77
2023/06/02 04:39:06;;;;;;;;;15.00;12.67;;;;;17.96;47.30;101493.34;4994593;28;45286;-78
2023/06/02 04:41:31;;;;;;;;;21.67;21.00;;;;;17.80;47.34;101479.44;4996124;28;45464;-74
2023/06/02 04:44:00;;;;;;;;;25.33;17.67;;;;;17.99;47.31;101498.56;4994005;28;45543;-73
2023/06/02 04:46:29;;;;;;;;;25.33;23.00;;;;;17.96;47.33;101489.78;4996604;28;45539;-73
2023/06/02 04:48:56;;;;;;;;;30.75;27.50;;;;;17.86;47.53;101512.03;4997296;28;45427;-76
2023/06/02 04:51:29;;;;;;;;;20.00;18.00;;;;;17.86;47.74;101520.88;4950137;28;1374742;-74
2023/06/02 04:53:55;;;;;;;;;21.33;19.00;;;;;17.82;47.49;101513.88;4995083;28;45700;-74
2023/06/02 04:56:25;;;;;;;;;27.33;21.67;;;;;17.82;47.32;101507.69;4995066;28;45381;-72
2023/06/02 04:58:55;;;;;;;;;24.33;17.33;;;;;17.91;47.25;101524.31;4995089;28;45515;-76
2023/06/02 05:01:22;;;;;;;;;23.33;17.67;;;;;17.93;47.06;101508.38;4994573;28;45477;-73
2023/06/02 05:03:47;;;;;;;;;23.67;20.00;;;;;18.00;47.28;101518.00;4998393;28;46295;-74
2023/06/02 05:06:13;;;;;;;;;22.33;19.00;;;;;18.04;47.11;101530.31;4996673;28;45810;-75
2023/06/02 05:08:38;;;;;;;;;19.00;19.00;;;;;18.02;46.86;101524.16;4994388;28;45731;-77
2023/06/02 05:11:07;;;;;;;;;18.33;17.67;;;;;18.06;46.62;101533.81;4997059;28;45487;-75
2023/06/02 05:13:33;;;;;;;;;23.67;16.67;;;;;18.05;46.64;101507.31;4980560;28;47543;-79
2023/06/02 05:15:58;;;;;;;;;29.33;22.33;;;;;18.17;46.62;101513.28;4998772;28;45432;-76
2023/06/02 05:18:24;;;;;;;;;30.33;24.33;;;;;18.04;46.58;101498.50;4998254;28;45286;-75
2023/06/02 05:20:53;;;;;;;;;30.33;27.00;;;;;17.92;46.45;101488.09;4996795;28;45428;-75
2023/06/02 05:23:19;;;;;;;;;21.00;20.00;;;;;18.06;46.82;101502.00;4993574;28;46161;-77
2023/06/02 05:25:47;;;;;;;;;26.33;21.33;;;;;18.15;46.39;101519.50;4997341;28;45462;-75
2023/06/02 05:28:13;;;;;;;;;25.33;21.00;;;;;18.05;46.34;101488.75;4977770;28;45786;-73
2023/06/02 05:30:39;;;;;;;;;23.00;20.67;;;;;18.19;46.16;101513.25;4994980;28;45372;-76
2023/06/02 05:33:05;;;;;;;;;29.00;21.67;;;;;18.03;46.39;101499.38;4994534;28;45854;-76
2023/06/02 05:35:31;;;;;;;;;22.67;19.67;;;;;18.21;46.15;101506.16;4977293;28;45341;-73
2023/06/02 05:37:56;;;;;;;;;22.33;16.67;;;;;18.16;45.90;101492.13;4994807;28;45218;-74
2023/06/02 05:40:25;;;;;;;;;23.33;19.33;;;;;18.18;45.90;101490.31;4995070;28;45657;-77
2023/06/02 05:42:52;;;;;;;;;23.67;22.00;;;;;18.29;45.78;101503.38;4994152;28;45732;-76
2023/06/02 05:45:17;;;;;;;;;22.33;18.67;;;;;18.30;45.74;101502.47;4994550;28;45394;-73
2023/06/02 05:47:43;;;;;;;;;23.67;19.67;;;;;18.21;45.57;101469.91;4994286;28;45543;-76
2023/06/02 05:50:10;;;;;;;;;19.67;18.00;;;;;18.31;45.20;101486.53;4994463;28;45338;-78
2023/06/02 05:52:36;;;;;;;;;28.33;22.00;;;;;18.28;45.12;101483.94;4996314;28;46620;-78
2023/06/02 05:55:02;;;;;;;;;29.67;27.67;;;;;18.39;45.11;101515.59;4998889;28;45341;-75
2023/06/02 05:57:28;;;;;;;;;27.33;24.67;;;;;18.21;45.52;101516.75;4998608;28;45485;-77
2023/06/02 05:59:53;;;;;;;;;27.33;22.00;;;;;18.10;45.30;101495.72;4998759;28;45341;-78
2023/06/02 06:02:19;;;;;;;;;32.75;29.75;;;;;18.17;45.94;101492.06;4994115;28;46679;-76
2023/06/02 06:04:45;;;;;;;;;23.67;23.67;;;;;18.28;45.90;101502.50;4992861;28;45687;-74
2023/06/02 06:07:10;;;;;;;;;33.50;27.25;;;;;18.42;45.70;101512.88;4994123;28;45429;-77
2023/06/02 06:09:40;;;;;;;;;31.00;26.00;;;;;18.50;44.88;101499.44;4997126;28;45484;-80
2023/06/02 06:12:11;;;;;;;;;35.67;31.33;;;;;18.60;44.96;101522.25;4994300;28;45901;-74
2023/06/02 06:14:37;;;;;;;;;24.33;24.00;;;;;18.52;44.60;101516.22;4994266;28;45338;-79
2023/06/02 06:17:02;;;;;;;;;31.67;24.67;;;;;18.38;44.61;101469.59;4976354;28;45479;-77
2023/06/02 06:19:28;;;;;;;;;23.33;23.33;;;;;18.60;44.23;101499.25;4992255;28;45511;-73
2023/06/02 06:21:57;;;;;;;;;33.33;25.00;;;;;18.75;44.46;101518.44;4993768;28;45335;-72
2023/06/02 06:24:25;;;;;;;;;34.67;26.00;;;;;18.63;44.16;101504.50;4993244;28;45914;-77
2023/06/02 06:26:52;;;;;;;;;40.75;32.00;;;;;18.66;44.05;101498.25;4997239;28;45483;-78
2023/06/02 06:29:18;;;;;;;;;44.75;32.50;;;;;18.39;44.41;101518.22;4996664;28;45363;-73
2023/06/02 06:31:47;;;;;;;;;39.25;34.00;;;;;17.93;45.38;101525.16;4981587;28;45508;-73
2023/06/02 06:34:13;;;;;;;;;39.50;35.00;;;;;17.45;46.44;101524.97;4987993;28;45567;-76
2023/06/02 06:36:39;;;;;;;;;41.25;34.00;;;;;17.06;47.29;101521.06;4994709;28;45498;-73
2023/06/02 06:39:05;;;;;;;;;52.75;38.00;;;;;16.85;48.10;101532.81;4993126;28;45595;-79
2023/06/02 06:41:30;;;;;;;;;34.50;31.75;;;;;16.61;48.60;101520.66;4987888;28;46414;-71
2023/06/02 06:43:56;;;;;;;;;47.00;33.75;;;;;16.62;48.72;101535.66;4988911;28;45492;-76
2023/06/02 06:46:22;;;;;;;;;39.00;31.50;;;;;16.44;49.00;101542.00;4980152;28;45454;-80
2023/06/02 06:48:47;;;;;;;;;43.50;33.50;;;;;16.37;49.36;101524.44;5000660;28;45400;-78
2023/06/02 06:51:13;;;;;;;;;39.00;32.75;;;;;16.48;49.38;101541.94;4979787;28;47132;-77
2023/06/02 06:53:39;;;;;;;;;45.50;35.50;;;;;16.39;49.53;101509.44;4996287;28;44819;-77
2023/06/02 06:56:04;;;;;;;;;47.25;35.25;;;;;16.44;49.52;101523.47;4999776;28;45398;-77
2023/06/02 06:58:30;;;;;;;;;42.50;34.25;;;;;16.34;49.52;101517.41;4996470;28;45516;-76
2023/06/02 07:00:57;;;;;;;;;48.75;37.25;;;;;16.48;49.71;101526.09;4990799;28;46031;-74
2023/06/02 07:03:25;;;;;;;;;37.50;31.00;;;;;16.77;49.55;101524.91;4993055;28;45447;-77
2023/06/02 07:05:52;;;;;;;;;32.25;29.75;;;;;17.14;48.76;101516.56;4995164;28;45492;-79
2023/06/02 07:08:17;;;;;;;;;36.75;28.50;;;;;17.26;48.09;101510.25;4981552;28;45346;-74
2023/06/02 07:10:43;;;;;;;;;38.75;32.25;;;;;17.52;48.39;101525.78;4981869;28;45611;-73
2023/06/02 07:13:09;;;;;;;;;44.00;33.25;;;;;17.74;47.83;101542.22;5000345;28;45262;-78
2023/06/02 07:15:36;;;;;;;;;34.00;31.25;;;;;17.94;46.65;101534.88;5000894;28;45462;-76
2023/06/02 07:18:02;;;;;;;;;31.75;27.25;;;;;17.97;46.80;101523.34;5001845;28;45485;-77
2023/06/02 07:20:27;;;;;;;;;39.75;30.00;;;;;18.16;45.98;101527.44;5001252;28;45494;-80
2023/06/02 07:22:53;;;;;;;;;36.50;32.50;;;;;18.15;45.60;101509.81;5001180;28;45423;-78
2023/06/02 07:25:19;;;;;;;;;28.50;25.75;;;;;18.15;45.62;101516.84;5000416;28;45451;-76
2023/06/02 07:27:44;;;;;;;;;28.50;28.50;;;;;18.20;45.28;101525.63;4980528;28;45441;-78
2023/06/02 07:30:10;;;;;;;;;23.67;21.33;;;;;18.24;45.67;101516.69;4997250;28;46062;-73
2023/06/02 07:32:39;;;;;;;;;28.33;22.67;;;;;18.37;44.69;101510.28;4997694;28;45398;-82
2023/06/02 07:35:31;;;;;;;;;22.00;21.00;;;;;18.61;44.79;101526.66;4979643;28;45600;-80
2023/06/02 07:37:57;;;;;;;;;25.67;24.00;;;;;18.79;44.35;101541.38;4986707;28;45531;-78
2023/06/02 07:40:23;;;;;;;;;25.67;24.00;;;;;18.78;44.01;101491.88;4997510;28;46261;-80
2023/06/02 07:42:49;;;;;;;;;23.67;21.33;;;;;19.04;43.84;101504.59;4997705;28;45408;-79
2023/06/02 07:45:14;;;;;;;;;26.00;21.33;;;;;19.22;43.47;101509.53;4999213;28;45311;-79
2023/06/02 07:47:40;;;;;;;;;27.33;23.00;;;;;19.33;43.23;101521.69;5001274;28;45416;-81
2023/06/02 07:50:07;;;;;;;;;24.33;21.00;;;;;19.49;43.07;101515.13;4982893;28;47446;-82
2023/06/02 07:52:34;;;;;;;;;27.67;21.33;;;;;19.38;42.43;101472.00;4997005;28;45393;-80
2023/06/02 07:55:00;;;;;;;;;26.67;24.67;;;;;19.68;42.43;101520.94;4996534;28;45404;-75
2023/06/02 07:57:25;;;;;;;;;27.33;22.67;;;;;19.82;42.11;101531.25;4979458;28;45600;-82
2023/06/02 07:59:53;;;;;;;;;24.67;21.33;;;;;19.70;41.99;101505.84;4996322;28;45650;-79
2023/06/02 08:02:19;;;;;;;;;22.67;16.67;;;;;19.89;41.81;101531.06;4999443;28;45441;-74
2023/06/02 08:04:45;;;;;;;;;21.67;19.00;;;;;19.95;41.80;101529.16;4975264;28;46189;-73
2023/06/02 08:07:10;;;;;;;;;19.67;16.67;;;;;19.91;41.56;101507.09;4977155;28;45358;-73
2023/06/02 08:09:36;;;;;;;;;14.67;14.00;;;;;19.94;41.00;101508.81;4979388;28;45471;-77
2023/06/02 08:12:02;;;;;;;;;22.67;21.67;;;;;19.84;41.24;101486.91;4983710;28;44751;-75
2023/06/02 08:14:28;;;;;;;;;17.00;16.00;;;;;20.11;41.22;101528.72;4982374;28;45393;-79
2023/06/02 08:16:55;;;;;;;;;14.33;13.33;;;;;20.19;41.09;101515.22;4978630;28;45701;-78
2023/06/02 08:19:23;;;;;;;;;17.00;15.33;;;;;20.18;40.91;101513.50;4977377;28;45358;-81
2023/06/02 08:21:49;;;;;;;;;17.00;13.33;;;;;20.39;40.57;101514.72;4976839;28;45360;-79
2023/06/02 08:24:15;;;;;;;;;15.67;12.67;;;;;20.34;40.36;101498.03;4961463;28;45465;-80
2023/06/02 08:26:41;;;;;;;;;15.00;12.67;;;;;20.54;40.42;101516.09;4978974;28;45660;-79
2023/06/02 08:29:12;;;;;;;;;17.33;11.33;;;;;20.56;40.29;101505.47;4975477;28;47796;-79
2023/06/02 08:31:38;;;;;;;;;14.33;11.67;;;;;20.20;39.72;101434.53;4979550;28;45451;-82
2023/06/02 08:34:05;;;;;;;;;12.00;11.67;;;;;20.74;39.82;101508.50;4963888;28;45390;-81
2023/06/02 08:36:32;;;;;;;;;17.67;13.33;;;;;20.82;39.79;101505.59;4982217;28;45367;-82
2023/06/02 08:38:58;;;;;;;;;21.33;13.67;;;;;20.77;39.73;101502.19;4979721;28;46072;-78
2023/06/02 08:41:26;;;;;;;;;22.33;17.33;;;;;20.80;39.70;101501.25;4975677;28;45359;-75
2023/06/02 08:43:52;;;;;;;;;15.67;14.67;;;;;20.48;40.22;101495.00;4976570;28;45560;-79
2023/06/02 08:46:18;;;;;;;;;15.00;12.33;;;;;20.46;39.96;101478.19;4976601;28;45460;-74
2023/06/02 08:48:45;;;;;;;;;14.00;10.00;;;;;20.62;39.64;101502.63;4958807;28;47771;-77
2023/06/02 08:51:23;;;;;;;;;12.33;11.33;;;;;20.68;39.66;101508.66;4960304;28;45476;-79
2023/06/02 08:53:49;;;;;;;;;17.00;14.33;;;;;20.50;39.14;101463.88;4964013;28;45356;-78
2023/06/02 08:56:15;;;;;;;;;14.00;12.67;;;;;20.79;38.96;101504.84;4976411;28;45729;-77
2023/06/02 08:58:46;;;;;;;;;13.33;11.33;;;;;20.72;38.99;101486.34;4976066;28;45416;-77
2023/06/02 09:01:12;;;;;;;;;18.00;15.33;;;;;20.75;38.77;101486.25;4975712;28;45374;-80
2023/06/02 09:03:38;;;;;;;;;17.33;13.33;;;;;20.77;38.83;101477.38;4962040;28;45457;-81
2023/06/02 09:06:37;;;;;;;;;25.00;21.00;;;;;20.86;38.74;101493.09;4996616;28;45534;-80
2023/06/02 09:09:04;;;;;;;;;20.67;19.67;;;;;20.75;38.66;101491.59;4955839;28;45566;-80
2023/06/02 09:11:32;;;;;;;;;12.33;11.33;;;;;20.81;38.68;101502.97;4995013;28;45733;-76
2023/06/02 09:13:58;;;;;;;;;14.67;13.67;;;;;20.85;38.67;101504.63;4997388;28;45487;-77
2023/06/02 09:16:35;;;;;;;;;26.33;22.00;;;;;20.47;38.76;101478.13;5000532;28;45498;-79
2023/06/02 09:19:01;;;;;;;;;27.67;24.33;;;;;19.87;39.29;101445.16;4997520;28;46282;-80
2023/06/02 09:21:29;;;;;;;;;21.67;21.67;;;;;19.86;40.45;101509.88;4996625;28;45388;-75
2023/06/02 09:24:46;;;;;;;;;25.00;21.33;;;;;19.60;40.70;101506.91;4978627;28;45384;-75
2023/06/02 09:27:16;;;;;;;;;27.00;21.00;;;;;19.50;41.15;101503.59;4993856;28;45012;-73
2023/06/02 09:29:43;;;;;;;;;26.33;24.00;;;;;19.51;41.09;101497.38;4978542;28;47939;-76
2023/06/02 09:32:18;;;;;;;;;22.67;17.00;;;;;19.70;40.79;101500.53;4995117;28;45457;-80
2023/06/02 09:34:45;;;;;;;;;25.33;24.00;;;;;19.52;40.95;101492.94;4995696;28;45302;-79
2023/06/02 09:37:15;;;;;;;;;27.67;21.67;;;;;19.35;40.55;101493.31;4995276;28;45416;-76
2023/06/02 09:39:43;;;;;;;;;27.33;24.67;;;;;19.03;41.42;101490.47;4978309;28;47702;-80
2023/06/02 09:42:13;;;;;;;;;19.00;17.00;;;;;19.13;41.52;101492.94;4997450;28;45831;-80
2023/06/02 09:44:40;;;;;;;;;17.67;14.00;;;;;19.15;41.40;101464.53;4978926;28;45507;-79
2023/06/02 09:47:25;;;;;;;;;21.67;17.33;;;;;19.33;41.24;101457.94;4998561;28;45491;-80
2023/06/02 09:49:53;;;;;;;;;20.67;16.33;;;;;19.64;41.06;101484.66;4982709;28;46946;-79
2023/06/02 09:52:19;;;;;;;;;18.33;15.67;;;;;19.69;40.76;101480.16;4999631;28;45543;-80
2023/06/02 09:54:47;;;;;;;;;28.00;24.33;;;;;19.94;41.42;101488.41;4995646;28;45654;-81
2023/06/02 09:57:17;;;;;;;;;21.67;19.00;;;;;20.05;40.66;101488.13;4995749;28;45757;-80
2023/06/02 09:59:45;;;;;;;;;16.33;14.33;;;;;20.16;40.46;101488.72;4975959;28;46823;-78
2023/06/02 10:02:11;;;;;;;;;21.67;16.00;;;;;20.21;40.22;101468.19;4995070;28;45475;-80
2023/06/02 10:04:38;;;;;;;;;20.33;18.00;;;;;20.29;40.07;101457.38;4978557;28;45795;-79
2023/06/02 10:07:13;;;;;;;;;23.33;22.00;;;;;20.47;40.12;101490.56;4996787;28;45676;-76
2023/06/02 10:10:00;;;;;;;;;18.00;16.33;;;;;20.46;40.32;101492.38;4998816;28;46305;-82
2023/06/02 10:12:47;;;;;;;;;21.33;17.00;;;;;20.61;39.81;101490.22;5006209;28;45437;-81
2023/06/02 10:15:26;;;;;;;;;17.67;15.67;;;;;20.75;39.23;101485.41;4999825;28;45237;-83
2023/06/02 10:18:20;;;;;;;;;22.33;15.67;;;;;20.82;39.18;101481.63;4999870;28;45781;-80
2023/06/02 10:21:07;;;;;;;;;28.33;26.33;;;;;20.94;38.85;101475.09;4980156;28;46974;-87
2023/06/02 10:23:57;;;;;;;;;24.67;20.00;;;;;20.99;39.01;101473.16;4997184;28;45527;-80
2023/06/02 10:26:41;;;;;;;;;23.00;19.33;;;;;21.06;38.77;101474.72;4997928;28;45393;-83
2023/06/02 10:29:09;;;;;;;;;19.00;17.67;;;;;21.04;39.06;101479.22;4997632;28;45543;-83
2023/06/02 10:31:35;;;;;;;;;19.00;16.00;;;;;20.84;39.03;101439.88;4979079;28;48060;-81
2023/06/02 10:34:01;;;;;;;;;17.00;16.00;;;;;21.15;38.64;101471.78;4994628;28;45649;-79
2023/06/02 10:36:47;;;;;;;;;26.00;19.67;;;;;21.17;39.55;101467.28;4997283;28;45399;-76
2023/06/02 10:39:42;;;;;;;;;22.00;16.00;;;;;21.16;39.25;101448.66;4996878;28;45417;-82
2023/06/02 10:42:10;;;;;;;;;20.33;19.67;;;;;21.44;38.49;101472.69;4977986;28;45447;-80
2023/06/02 10:44:40;;;;;;;;;22.33;15.67;;;;;21.52;38.25;101464.44;4996405;28;45378;-81
2023/06/02 10:47:18;;;;;;;;;26.00;24.00;;;;;21.70;37.87;101468.34;4995511;28;45371;-81
2023/06/02 10:50:03;;;;;;;;;25.67;21.67;;;;;21.73;37.81;101458.41;4994841;28;45445;-82
2023/06/02 10:52:31;;;;;;;;;21.00;18.00;;;;;21.91;37.68;101470.28;4995973;28;46100;-81
2023/06/02 10:55:12;;;;;;;;;27.00;19.33;;;;;22.03;37.59;101469.88;4998522;28;45402;-83
2023/06/02 10:57:49;;;;;;;;;19.33;18.00;;;;;22.13;37.14;101464.22;4995294;28;45437;-82
2023/06/02 11:00:38;;;;;;;;;22.33;17.00;;;;;22.19;37.07;101459.53;4994769;28;45435;-83
2023/06/02 11:03:20;;;;;;;;;28.00;24.67;;;;;22.11;37.05;101463.38;4994059;28;45380;-80
2023/06/02 11:05:47;;;;;;;;;19.67;18.00;;;;;22.01;37.37;101462.84;4987189;28;45941;-80
2023/06/02 11:08:12;;;;;;;;;21.33;18.00;;;;;22.10;37.31;101456.31;4976430;28;45846;-75
2023/06/02 11:10:54;;;;;;;;;20.00;18.00;;;;;22.17;37.14;101449.84;4993891;28;45301;-77
2023/06/02 11:13:25;;;;;;;;;24.00;20.67;;;;;22.28;36.87;101438.81;4993488;28;46004;-81
2023/06/02 11:15:59;;;;;;;;;22.00;19.00;;;;;22.40;36.99;101459.72;4994373;28;45397;-78